createdAt,value
2022-09-13T00:00:08.195Z,3.30
2022-09-13T00:02:56.025Z,3.00
2022-09-13T00:05:43.215Z,2.63
2022-09-13T00:08:30.998Z,2.67
2022-09-13T00:11:22.502Z,2.60
2022-09-13T00:14:10.839Z,3.67
2022-09-13T00:16:58.370Z,2.80
2022-09-13T00:19:46.163Z,3.00
2022-09-13T00:22:33.658Z,2.77
2022-09-13T00:25:21.509Z,2.70
2022-09-13T00:28:09.093Z,2.40
2022-09-13T00:31:00.125Z,2.77
2022-09-13T00:33:47.545Z,2.87
2022-09-13T00:36:35.168Z,2.50
2022-09-13T00:39:22.780Z,2.23
2022-09-13T00:42:13.796Z,2.63
2022-09-13T00:45:13.372Z,2.83
2022-09-13T00:48:07.535Z,5.07
2022-09-13T00:50:57.054Z,3.60
2022-09-13T00:53:46.590Z,2.40
2022-09-13T00:56:46.748Z,3.77
2022-09-13T00:59:39.985Z,2.67
2022-09-13T01:02:29.261Z,2.40
2022-09-13T01:05:18.959Z,2.40
2022-09-13T01:08:13.014Z,2.30
2022-09-13T01:11:01.786Z,2.47
2022-09-13T01:13:49.734Z,2.37
2022-09-13T01:16:37.030Z,2.30
2022-09-13T01:19:24.889Z,2.27
2022-09-13T01:22:21.511Z,2.30
2022-09-13T01:25:11.536Z,3.30
2022-09-13T01:27:59.123Z,3.83
2022-09-13T01:30:55.355Z,2.70
2022-09-13T01:33:52.151Z,2.97
2022-09-13T01:36:39.391Z,2.50
2022-09-13T01:39:45.917Z,2.20
2022-09-13T01:42:36.684Z,2.27
2022-09-13T01:45:39.687Z,2.47
2022-09-13T01:48:53.497Z,2.33
2022-09-13T01:51:50.851Z,2.23
2022-09-13T01:54:51.963Z,1.80
2022-09-13T01:57:44.386Z,2.03
2022-09-13T02:00:35.553Z,1.70
2022-09-13T02:03:45.927Z,1.70
2022-09-13T02:06:40.865Z,2.20
2022-09-13T02:09:29.340Z,2.00
2022-09-13T02:12:19.677Z,2.10
2022-09-13T02:15:12.728Z,2.03
2022-09-13T02:18:07.042Z,1.57
2022-09-13T02:20:55.739Z,1.90
2022-09-13T02:24:04.174Z,1.73
2022-09-13T02:26:53.608Z,1.70
2022-09-13T02:29:43.335Z,1.97
2022-09-13T02:32:33.110Z,1.80
2022-09-13T02:35:23.107Z,1.80
2022-09-13T02:38:13.960Z,1.77
2022-09-13T02:41:06.505Z,1.60
2022-09-13T02:44:01.379Z,1.60
2022-09-13T02:47:07.837Z,1.63
2022-09-13T02:49:55.546Z,1.90
2022-09-13T02:52:48.099Z,1.60
2022-09-13T02:55:51.094Z,1.90
2022-09-13T02:58:49.798Z,2.00
2022-09-13T03:01:38.647Z,1.80
2022-09-13T03:04:27.117Z,2.03
2022-09-13T03:07:15.393Z,1.77
2022-09-13T03:10:14.117Z,2.10
2022-09-13T03:13:08.933Z,1.83
2022-09-13T03:15:59.598Z,1.63
2022-09-13T03:19:19.772Z,2.00
2022-09-13T03:22:13.185Z,1.80
2022-09-13T03:25:16.300Z,1.67
2022-09-13T03:28:12.075Z,1.83
2022-09-13T03:31:11.877Z,1.53
2022-09-13T03:34:02.077Z,2.30
2022-09-13T03:36:58.059Z,1.73
2022-09-13T03:39:53.198Z,1.90
2022-09-13T03:42:47.070Z,1.30
2022-09-13T03:45:38.068Z,1.63
2022-09-13T03:48:27.850Z,1.47
2022-09-13T03:51:16.082Z,1.60
2022-09-13T03:54:05.703Z,1.40
2022-09-13T03:57:10.152Z,1.93
2022-09-13T03:59:57.995Z,1.53
2022-09-13T04:02:45.908Z,1.83
2022-09-13T04:05:34.581Z,1.73
2022-09-13T04:08:22.194Z,1.90
2022-09-13T04:11:09.585Z,1.73
2022-09-13T04:13:58.183Z,2.00
2022-09-13T04:16:45.477Z,1.90
2022-09-13T04:19:33.782Z,2.03
2022-09-13T04:22:20.952Z,2.00
2022-09-13T04:25:09.389Z,1.80
2022-09-13T04:27:58.129Z,2.00
2022-09-13T04:30:46.602Z,1.80
2022-09-13T04:33:33.996Z,2.00
2022-09-13T04:36:21.786Z,2.07
2022-09-13T04:39:08.968Z,1.67
2022-09-13T04:41:57.122Z,1.60
2022-09-13T04:44:45.226Z,1.77
2022-09-13T04:47:32.686Z,1.70
2022-09-13T04:50:21.240Z,1.70
2022-09-13T04:53:08.451Z,1.70
2022-09-13T04:56:01.138Z,2.07
2022-09-13T04:58:48.348Z,1.87
2022-09-13T05:01:35.931Z,2.00
2022-09-13T05:04:23.307Z,2.00
2022-09-13T05:07:11.174Z,1.83
2022-09-13T05:09:58.538Z,1.70
2022-09-13T05:12:46.344Z,1.97
2022-09-13T05:15:33.550Z,1.63
2022-09-13T05:18:21.156Z,1.80
2022-09-13T05:21:08.961Z,1.67
2022-09-13T05:23:56.870Z,1.83
2022-09-13T05:26:44.513Z,1.47
2022-09-13T05:29:32.152Z,1.60
2022-09-13T05:32:19.357Z,1.73
2022-09-13T05:35:07.476Z,1.70
2022-09-13T05:37:55.110Z,1.57
2022-09-13T05:40:42.343Z,1.87
2022-09-13T05:43:31.409Z,1.80
2022-09-13T05:46:20.202Z,1.80
2022-09-13T05:49:07.993Z,1.52
2022-09-13T05:51:55.582Z,1.23
2022-09-13T05:54:43.211Z,1.48
2022-09-13T05:57:30.581Z,1.50
2022-09-13T06:00:18.843Z,1.63
2022-09-13T06:03:06.230Z,1.25
2022-09-13T06:05:57.757Z,1.50
2022-09-13T06:08:45.331Z,1.77
2022-09-13T06:11:32.738Z,1.65
2022-09-13T06:14:20.587Z,1.70
2022-09-13T06:17:08.038Z,1.65
2022-09-13T06:19:56.976Z,1.20
2022-09-13T06:22:44.808Z,1.48
2022-09-13T06:25:32.715Z,1.23
2022-09-13T06:28:21.294Z,1.00
2022-09-13T06:31:10.143Z,1.30
2022-09-13T06:33:59.305Z,1.17
2022-09-13T06:36:46.538Z,1.20
2022-09-13T06:39:34.288Z,1.23
2022-09-13T06:42:22.114Z,1.13
2022-09-13T06:45:10.500Z,1.10
2022-09-13T06:47:57.894Z,1.52
2022-09-13T06:50:46.214Z,0.90
2022-09-13T06:53:34.778Z,1.08
2022-09-13T06:56:23.922Z,1.10
2022-09-13T06:59:11.372Z,1.23
2022-09-13T07:01:59.270Z,1.15
2022-09-13T07:04:46.663Z,1.10
2022-09-13T07:07:34.485Z,1.30
2022-09-13T07:10:21.867Z,1.10
2022-09-13T07:13:09.736Z,1.10
2022-09-13T07:15:57.784Z,1.17
2022-09-13T07:18:45.851Z,1.20
2022-09-13T07:21:34.093Z,0.90
2022-09-13T07:24:22.502Z,1.10
2022-09-13T07:27:09.746Z,0.98
2022-09-13T07:29:58.291Z,1.33
2022-09-13T07:32:45.702Z,1.10
2022-09-13T07:35:32.920Z,1.17
2022-09-13T07:38:20.286Z,0.85
2022-09-13T07:41:09.500Z,1.17
2022-09-13T07:43:57.981Z,1.08
2022-09-13T07:46:45.309Z,1.08
2022-09-13T07:49:33.124Z,0.80
2022-09-13T07:52:20.501Z,0.98
2022-09-13T07:55:07.851Z,0.77
2022-09-13T07:57:55.768Z,1.00
2022-09-13T08:00:43.594Z,1.00
2022-09-13T08:03:31.100Z,1.02
2022-09-13T08:06:18.644Z,1.05
2022-09-13T08:09:07.226Z,1.42
2022-09-13T08:11:55.079Z,0.80
2022-09-13T08:14:43.102Z,1.10
2022-09-13T08:17:30.478Z,1.00
2022-09-13T08:20:18.662Z,0.90
2022-09-13T08:23:06.874Z,1.27
2022-09-13T08:25:54.759Z,1.00
2022-09-13T08:28:43.005Z,1.00
2022-09-13T08:31:31.266Z,0.98
2022-09-13T08:34:19.895Z,1.10
2022-09-13T08:37:07.319Z,1.10
2022-09-13T08:39:55.130Z,0.85
2022-09-13T08:42:45.498Z,0.93
2022-09-13T08:45:33.189Z,0.80
2022-09-13T08:48:24.217Z,0.95
2022-09-13T08:51:26.533Z,0.70
2022-09-13T08:54:15.017Z,1.30
2022-09-13T08:57:05.901Z,1.10
2022-09-13T08:59:58.821Z,1.00
2022-09-13T09:02:55.220Z,1.00
2022-09-13T09:05:49.498Z,0.95
2022-09-13T09:08:41.367Z,1.10
2022-09-13T09:11:47.350Z,1.10
2022-09-13T09:14:39.685Z,1.10
2022-09-13T09:17:30.147Z,0.70
2022-09-13T09:20:23.643Z,1.00
2022-09-13T09:23:40.799Z,1.10
2022-09-13T09:26:30.970Z,1.20
2022-09-13T09:29:24.241Z,0.90
2022-09-13T09:32:31.371Z,0.95
2022-09-13T09:35:28.600Z,0.90
2022-09-13T09:38:22.223Z,0.70
2022-09-13T09:41:29.375Z,0.98
2022-09-13T09:44:16.678Z,1.13
2022-09-13T09:47:06.476Z,1.02
2022-09-13T09:50:10.062Z,0.98
2022-09-13T09:53:01.030Z,0.85
2022-09-13T09:55:56.021Z,0.90
2022-09-13T09:58:45.527Z,0.90
2022-09-13T10:01:34.988Z,0.95
2022-09-13T10:04:22.998Z,1.30
2022-09-13T10:07:29.394Z,1.02
2022-09-13T10:10:25.022Z,1.00
2022-09-13T10:13:21.495Z,0.90
2022-09-13T10:16:26.478Z,1.00
2022-09-13T10:19:33.059Z,1.10
2022-09-13T10:22:20.928Z,1.00
2022-09-13T10:25:27.375Z,1.30
2022-09-13T10:28:17.886Z,1.08
2022-09-13T10:31:13.763Z,0.88
2022-09-13T10:34:12.742Z,1.13
2022-09-13T10:37:00.255Z,0.80
2022-09-13T10:39:56.635Z,1.05
2022-09-13T10:42:51.579Z,1.83
2022-09-13T10:45:39.253Z,1.25
2022-09-13T10:48:28.674Z,1.15
2022-09-13T10:51:21.949Z,0.85
2022-09-13T10:54:15.757Z,0.98
2022-09-13T10:57:23.607Z,0.93
2022-09-13T11:00:13.731Z,1.00
2022-09-13T11:03:20.097Z,1.00
2022-09-13T11:06:26.586Z,0.90
2022-09-13T11:09:14.027Z,1.10
2022-09-13T11:12:18.895Z,1.30
2022-09-13T11:15:09.392Z,0.90
2022-09-13T11:17:57.292Z,0.88
2022-09-13T11:20:44.707Z,0.98
2022-09-13T11:23:50.304Z,1.25
2022-09-13T11:26:47.381Z,0.90
2022-09-13T11:29:44.849Z,0.80
2022-09-13T11:32:52.357Z,0.90
2022-09-13T11:35:43.508Z,0.90
2022-09-13T11:38:30.707Z,0.80
2022-09-13T11:41:18.551Z,0.85
2022-09-13T11:44:09.074Z,1.00
2022-09-13T11:47:02.773Z,0.90
2022-09-13T11:49:50.225Z,1.00
2022-09-13T11:52:56.072Z,1.13
2022-09-13T11:55:45.932Z,1.05
2022-09-13T11:58:38.784Z,1.10
2022-09-13T12:01:29.155Z,1.08
2022-09-13T12:04:25.881Z,1.20
2022-09-13T12:07:20.266Z,0.80
2022-09-13T12:10:14.660Z,1.02
2022-09-13T12:13:03.895Z,0.88
2022-09-13T12:15:54.123Z,1.00
2022-09-13T12:18:44.528Z,1.10
2022-09-13T12:21:42.953Z,0.90
2022-09-13T12:24:36.311Z,1.00
2022-09-13T12:27:39.625Z,1.15
2022-09-13T12:30:31.714Z,0.93
2022-09-13T12:33:20.143Z,1.40
2022-09-13T12:36:07.306Z,1.13
2022-09-13T12:39:06.644Z,0.80
2022-09-13T12:41:53.998Z,0.98
2022-09-13T12:44:44.489Z,1.23
2022-09-13T12:47:38.549Z,0.98
2022-09-13T12:50:45.017Z,1.00
2022-09-13T12:53:47.259Z,0.80
2022-09-13T12:56:53.605Z,0.90
2022-09-13T12:59:58.958Z,0.90
2022-09-13T13:02:54.708Z,0.98
2022-09-13T13:05:43.744Z,0.85
2022-09-13T13:08:31.689Z,0.60
2022-09-13T13:11:21.542Z,0.90
2022-09-13T13:14:26.023Z,2.00
2022-09-13T13:17:32.361Z,1.30
2022-09-13T13:20:38.349Z,0.80
2022-09-13T13:23:27.375Z,1.45
2022-09-13T13:26:23.890Z,1.00
2022-09-13T13:29:16.139Z,0.90
2022-09-13T13:32:04.282Z,0.80
2022-09-13T13:34:51.949Z,1.30
2022-09-13T13:37:39.639Z,0.98
2022-09-13T13:40:29.548Z,1.20
2022-09-13T13:43:37.549Z,1.00
2022-09-13T13:46:30.257Z,1.05
2022-09-13T13:49:33.699Z,1.00
2022-09-13T13:52:24.219Z,0.80
2022-09-13T13:55:30.468Z,0.90
2022-09-13T13:58:30.387Z,1.20
2022-09-13T14:01:21.185Z,1.08
2022-09-13T14:04:27.862Z,0.80
2022-09-13T14:07:22.586Z,0.93
2022-09-13T14:10:10.249Z,0.90
2022-09-13T14:13:16.999Z,0.80
2022-09-13T14:16:05.547Z,0.93
2022-09-13T14:18:53.386Z,1.45
2022-09-13T14:21:49.418Z,0.90
2022-09-13T14:24:43.514Z,0.88
2022-09-13T14:27:38.013Z,0.95
2022-09-13T14:30:27.076Z,1.00
2022-09-13T14:33:31.422Z,0.98
2022-09-13T14:36:22.393Z,0.77
2022-09-13T14:39:09.761Z,0.93
2022-09-13T14:42:01.879Z,0.98
2022-09-13T14:44:49.782Z,1.05
2022-09-13T14:47:42.235Z,1.25
2022-09-13T14:50:33.502Z,1.13
2022-09-13T14:53:23.502Z,1.30
2022-09-13T14:56:21.171Z,1.60
2022-09-13T14:59:14.988Z,0.98
2022-09-13T15:02:17.114Z,0.90
2022-09-13T15:05:08.561Z,1.00
2022-09-13T15:07:58.800Z,1.05
2022-09-13T15:10:46.419Z,0.98
2022-09-13T15:13:34.565Z,0.95
2022-09-13T15:16:31.804Z,1.17
2022-09-13T15:19:24.947Z,1.77
2022-09-13T15:22:14.893Z,1.63
2022-09-13T15:25:02.999Z,1.42
2022-09-13T15:27:50.574Z,1.30
2022-09-13T15:30:42.086Z,1.13
2022-09-13T15:33:34.278Z,1.15
2022-09-13T15:36:21.764Z,1.70
2022-09-13T15:39:09.381Z,1.52
2022-09-13T15:42:00.631Z,1.35
2022-09-13T15:44:47.984Z,0.95
2022-09-13T15:47:35.671Z,1.25
2022-09-13T15:50:29.474Z,1.60
2022-09-13T15:53:17.216Z,1.20
2022-09-13T15:56:05.475Z,1.02
2022-09-13T15:58:53.097Z,1.70
2022-09-13T16:01:40.613Z,1.85
2022-09-13T16:04:28.044Z,1.35
2022-09-13T16:07:16.255Z,1.10
2022-09-13T16:10:04.628Z,1.00
2022-09-13T16:12:51.861Z,1.00
2022-09-13T16:15:39.646Z,1.52
2022-09-13T16:18:28.727Z,1.45
2022-09-13T16:21:16.043Z,1.40
2022-09-13T16:24:03.767Z,1.70
2022-09-13T16:26:51.122Z,1.20
2022-09-13T16:29:38.436Z,1.67
2022-09-13T16:32:25.841Z,1.88
2022-09-13T16:35:14.099Z,1.67
2022-09-13T16:38:02.115Z,1.38
2022-09-13T16:40:49.916Z,1.77
2022-09-13T16:43:37.377Z,1.70
2022-09-13T16:46:25.687Z,2.55
2022-09-13T16:49:13.490Z,2.78
2022-09-13T16:52:01.280Z,2.28
2022-09-13T16:54:49.822Z,2.45
2022-09-13T16:57:37.797Z,2.60
2022-09-13T17:00:28.536Z,3.15
2022-09-13T17:03:16.425Z,2.67
2022-09-13T17:06:05.428Z,2.50
2022-09-13T17:08:57.691Z,2.65
2022-09-13T17:11:45.795Z,2.75
2022-09-13T17:14:33.781Z,1.70
2022-09-13T17:17:21.229Z,2.22
2022-09-13T17:20:10.486Z,2.20
2022-09-13T17:22:57.685Z,2.35
2022-09-13T17:25:47.586Z,2.50
2022-09-13T17:28:38.925Z,2.35
2022-09-13T17:31:26.583Z,2.50
2022-09-13T17:34:14.268Z,2.40
2022-09-13T17:37:03.470Z,2.42
2022-09-13T17:39:50.706Z,3.10
2022-09-13T17:42:38.150Z,3.00
2022-09-13T17:45:26.122Z,3.10
2022-09-13T17:48:14.049Z,2.90
2022-09-13T17:51:02.818Z,3.22
2022-09-13T17:53:51.422Z,3.45
2022-09-13T17:56:40.216Z,2.83
2022-09-13T17:59:27.948Z,3.10
2022-09-13T18:02:15.465Z,3.17
2022-09-13T18:05:05.898Z,3.25
2022-09-13T18:07:55.662Z,3.20
2022-09-13T18:11:04.067Z,3.25
2022-09-13T18:13:51.592Z,3.00
2022-09-13T18:16:39.104Z,3.10
2022-09-13T18:19:45.447Z,3.33
2022-09-13T18:22:34.872Z,3.47
2022-09-13T18:25:24.008Z,3.45
2022-09-13T18:28:11.600Z,3.22
2022-09-13T18:31:00.036Z,2.45
2022-09-13T18:33:48.036Z,3.90
2022-09-13T18:36:36.263Z,3.35
2022-09-13T18:39:24.891Z,3.70
2022-09-13T18:42:12.611Z,3.63
2022-09-13T18:45:00.564Z,3.45
2022-09-13T18:47:47.988Z,3.65
2022-09-13T18:50:35.871Z,4.38
2022-09-13T18:53:34.153Z,3.75
2022-09-13T18:56:23.705Z,4.15
2022-09-13T18:59:11.652Z,3.60
2022-09-13T19:02:00.758Z,3.53
2022-09-13T19:04:48.430Z,3.35
2022-09-13T19:07:37.546Z,3.20
2022-09-13T19:10:26.812Z,3.20
2022-09-13T19:13:13.625Z,3.33
2022-09-13T19:16:03.452Z,3.53
2022-09-13T19:18:53.363Z,3.20
2022-09-13T19:21:41.822Z,3.25
2022-09-13T19:24:28.813Z,2.45
2022-09-13T19:27:16.367Z,2.92
2022-09-13T19:30:04.473Z,3.20
2022-09-13T19:32:51.885Z,3.28
2022-09-13T19:35:38.869Z,2.97
2022-09-13T19:38:26.533Z,3.38
2022-09-13T19:41:18.791Z,3.40
2022-09-13T19:44:06.001Z,3.30
2022-09-13T19:47:14.866Z,3.22
2022-09-13T19:50:00.446Z,2.80
2022-09-13T19:52:50.032Z,2.75
2022-09-13T19:55:44.889Z,2.97
2022-09-13T19:58:32.463Z,3.03
2022-09-13T20:01:21.938Z,3.10
2022-09-13T20:04:14.384Z,2.97
2022-09-13T20:07:02.302Z,3.00
2022-09-13T20:09:49.808Z,3.17
2022-09-13T20:12:37.739Z,3.15
2022-09-13T20:15:27.857Z,3.55
2022-09-13T20:18:16.032Z,3.15
2022-09-13T20:21:07.758Z,3.40
2022-09-13T20:23:56.751Z,2.38
2022-09-13T20:26:44.686Z,3.00
2022-09-13T20:29:32.145Z,3.13
2022-09-13T20:32:19.603Z,3.10
2022-09-13T20:35:07.408Z,3.47
2022-09-13T20:37:54.784Z,2.90
2022-09-13T20:40:42.543Z,2.65
2022-09-13T20:43:29.976Z,2.75
2022-09-13T20:46:20.465Z,3.17
2022-09-13T20:49:09.215Z,3.20
2022-09-13T20:51:57.094Z,2.88
2022-09-13T20:54:44.596Z,2.55
2022-09-13T20:57:32.013Z,2.40
2022-09-13T21:00:19.866Z,2.97
2022-09-13T21:03:08.157Z,2.83
2022-09-13T21:05:56.012Z,2.80
2022-09-13T21:08:43.775Z,2.80
2022-09-13T21:11:35.754Z,2.90
2022-09-13T21:14:23.672Z,2.05
2022-09-13T21:17:11.967Z,2.22
2022-09-13T21:19:59.637Z,3.03
2022-09-13T21:22:48.131Z,2.67
2022-09-13T21:25:38.945Z,2.65
2022-09-13T21:28:26.810Z,2.45
2022-09-13T21:31:20.759Z,3.03
2022-09-13T21:34:13.589Z,2.83
2022-09-13T21:37:01.008Z,3.30
2022-09-13T21:39:48.979Z,3.50
2022-09-13T21:42:36.349Z,3.28
2022-09-13T21:45:24.361Z,3.05
2022-09-13T21:48:11.771Z,6.80
2022-09-13T21:51:06.723Z,3.35
2022-09-13T21:53:58.676Z,4.65
2022-09-13T21:56:51.402Z,3.53
2022-09-13T21:59:38.775Z,3.60
2022-09-13T22:02:27.260Z,3.20
2022-09-13T22:05:38.807Z,2.95
2022-09-13T22:08:26.346Z,2.67
2022-09-13T22:11:15.282Z,3.30
2022-09-13T22:14:03.339Z,2.67
2022-09-13T22:16:53.184Z,3.05
2022-09-13T22:19:41.198Z,2.90
2022-09-13T22:22:29.155Z,2.80
2022-09-13T22:25:16.636Z,3.10
2022-09-13T22:28:03.966Z,3.60
2022-09-13T22:30:51.406Z,3.38
2022-09-13T22:33:39.676Z,3.28
2022-09-13T22:36:27.645Z,4.00
2022-09-13T22:39:16.286Z,4.70
2022-09-13T22:42:03.733Z,3.42
2022-09-13T22:44:51.578Z,3.42
2022-09-13T22:47:38.953Z,3.30
2022-09-13T22:50:26.809Z,3.35
2022-09-13T22:53:13.992Z,3.50
2022-09-13T22:56:09.245Z,3.90
2022-09-13T22:59:01.169Z,3.28
2022-09-13T23:01:49.851Z,3.13
2022-09-13T23:04:37.334Z,2.85
2022-09-13T23:07:24.620Z,3.15
2022-09-13T23:10:12.443Z,3.00
2022-09-13T23:12:59.834Z,3.03
2022-09-13T23:15:47.699Z,3.10
2022-09-13T23:18:35.897Z,3.42
2022-09-13T23:21:24.724Z,3.22
2022-09-13T23:24:14.434Z,2.80
2022-09-13T23:27:01.852Z,3.22
2022-09-13T23:29:51.752Z,3.30
2022-09-13T23:32:39.212Z,3.63
2022-09-13T23:35:27.075Z,3.50
2022-09-13T23:38:14.522Z,2.88
2022-09-13T23:41:02.428Z,3.05
2022-09-13T23:43:50.372Z,3.40
2022-09-13T23:46:37.793Z,3.30
2022-09-13T23:49:25.796Z,2.92
2022-09-13T23:52:13.492Z,2.67
2022-09-13T23:55:00.694Z,3.03
2022-09-13T23:57:48.648Z,3.30
